sensor_id;sensor_type;location;lat;lon;timestamp;pressure;altitude;pressure_sealevel;temperature;humidity
72465;BME280;60471;52.150;4.508;2023-02-01T00:00:25;101758.47;;;8.18;64.90
72465;BME280;60471;52.150;4.508;2023-02-01T00:02:51;101768.38;;;8.07;65.36
72465;BME280;60471;52.150;4.508;2023-02-01T00:05:17;101760.44;;;8.08;65.16
72465;BME280;60471;52.150;4.508;2023-02-01T00:07:47;101754.41;;;8.05;65.42
72465;BME280;60471;52.150;4.508;2023-02-01T00:10:15;101757.69;;;8.14;65.10
72465;BME280;60471;52.150;4.508;2023-02-01T00:12:42;101761.66;;;7.92;65.79
72465;BME280;60471;52.150;4.508;2023-02-01T00:15:08;101748.59;;;7.89;65.79
72465;BME280;60471;52.150;4.508;2023-02-01T00:17:34;101762.25;;;8.06;65.13
72465;BME280;60471;52.150;4.508;2023-02-01T00:20:01;101768.38;;;8.07;64.56
72465;BME280;60471;52.150;4.508;2023-02-01T00:22:28;101769.22;;;8.07;63.83
72465;BME280;60471;52.150;4.508;2023-02-01T00:24:55;101763.09;;;8.07;63.84
72465;BME280;60471;52.150;4.508;2023-02-01T00:27:21;101750.28;;;7.93;64.08
72465;BME280;60471;52.150;4.508;2023-02-01T00:29:47;101781.38;;;8.11;63.59
72465;BME280;60471;52.150;4.508;2023-02-01T00:32:14;101758.91;;;7.98;64.15
72465;BME280;60471;52.150;4.508;2023-02-01T00:34:40;101764.72;;;8.12;63.91
72465;BME280;60471;52.150;4.508;2023-02-01T00:37:06;101768.44;;;8.04;63.80
72465;BME280;60471;52.150;4.508;2023-02-01T00:39:33;101748.28;;;8.03;63.69
72465;BME280;60471;52.150;4.508;2023-02-01T00:42:00;101767.69;;;7.97;63.96
72465;BME280;60471;52.150;4.508;2023-02-01T00:44:27;101775.66;;;7.94;63.85
72465;BME280;60471;52.150;4.508;2023-02-01T00:46:54;101749.94;;;8.08;63.50
72465;BME280;60471;52.150;4.508;2023-02-01T00:49:20;101744.75;;;8.05;63.44
72465;BME280;60471;52.150;4.508;2023-02-01T00:51:46;101753.81;;;7.91;64.22
72465;BME280;60471;52.150;4.508;2023-02-01T00:54:13;101729.19;;;7.96;63.98
72465;BME280;60471;52.150;4.508;2023-02-01T00:56:39;101722.09;;;8.00;64.36
72465;BME280;60471;52.150;4.508;2023-02-01T00:59:05;101731.72;;;7.99;64.54
72465;BME280;60471;52.150;4.508;2023-02-01T01:01:31;101728.16;;;8.03;64.50
72465;BME280;60471;52.150;4.508;2023-02-01T01:03:58;101738.56;;;8.08;64.64
72465;BME280;60471;52.150;4.508;2023-02-01T01:06:28;101722.75;;;8.09;64.96
72465;BME280;60471;52.150;4.508;2023-02-01T01:08:58;101742.81;;;8.12;65.08
72465;BME280;60471;52.150;4.508;2023-02-01T01:11:28;101729.03;;;8.02;65.70
72465;BME280;60471;52.150;4.508;2023-02-01T01:13:58;101766.22;;;8.23;65.41
72465;BME280;60471;52.150;4.508;2023-02-01T01:16:26;101728.97;;;8.05;66.16
72465;BME280;60471;52.150;4.508;2023-02-01T01:18:55;101742.72;;;8.17;65.83
72465;BME280;60471;52.150;4.508;2023-02-01T01:21:22;101730.25;;;8.25;66.06
72465;BME280;60471;52.150;4.508;2023-02-01T01:23:49;101741.25;;;8.05;66.74
72465;BME280;60471;52.150;4.508;2023-02-01T01:26:18;101762.31;;;8.03;66.91
72465;BME280;60471;52.150;4.508;2023-02-01T01:28:46;101733.03;;;8.19;66.78
72465;BME280;60471;52.150;4.508;2023-02-01T01:31:14;101724.25;;;8.20;66.89
72465;BME280;60471;52.150;4.508;2023-02-01T01:33:41;101730.25;;;8.26;66.68
72465;BME280;60471;52.150;4.508;2023-02-01T01:36:10;101733.66;;;8.30;66.78
72465;BME280;60471;52.150;4.508;2023-02-01T01:38:41;101723.56;;;8.11;67.55
72465;BME280;60471;52.150;4.508;2023-02-01T01:41:09;101739.91;;;8.26;67.29
72465;BME280;60471;52.150;4.508;2023-02-01T01:47:03;101733.25;;;8.09;67.06
72465;BME280;60471;52.150;4.508;2023-02-01T01:49:30;101709.22;;;8.26;66.44
72465;BME280;60471;52.150;4.508;2023-02-01T01:52:00;101734.06;;;8.11;66.46
72465;BME280;60471;52.150;4.508;2023-02-01T01:54:55;101739.13;;;8.21;66.28
72465;BME280;60471;52.150;4.508;2023-02-01T01:57:47;101732.66;;;8.34;65.71
72465;BME280;60471;52.150;4.508;2023-02-01T02:00:20;101710.19;;;8.21;65.95
72465;BME280;60471;52.150;4.508;2023-02-01T02:02:51;101725.50;;;8.05;66.57
72465;BME280;60471;52.150;4.508;2023-02-01T02:05:22;101710.53;;;8.07;66.45
72465;BME280;60471;52.150;4.508;2023-02-01T02:07:50;101718.44;;;8.07;66.19
72465;BME280;60471;52.150;4.508;2023-02-01T02:10:19;101710.38;;;8.13;65.79
72465;BME280;60471;52.150;4.508;2023-02-01T02:12:47;101709.97;;;8.30;65.48
72465;BME280;60471;52.150;4.508;2023-02-01T02:15:15;101707.91;;;8.07;65.97
72465;BME280;60471;52.150;4.508;2023-02-01T02:17:59;101703.09;;;8.26;65.47
72465;BME280;60471;52.150;4.508;2023-02-01T02:24:29;101692.69;;;8.20;65.88
72465;BME280;60471;52.150;4.508;2023-02-01T02:26:52;101725.31;;;8.11;66.30
72465;BME280;60471;52.150;4.508;2023-02-01T02:29:44;101693.66;;;8.17;66.43
72465;BME280;60471;52.150;4.508;2023-02-01T02:33:00;101694.69;;;8.10;66.68
72465;BME280;60471;52.150;4.508;2023-02-01T02:36:17;101718.00;;;8.24;66.20
72465;BME280;60471;52.150;4.508;2023-02-01T02:45:42;101671.91;;;8.10;66.79
72465;BME280;60471;52.150;4.508;2023-02-01T02:48:47;101671.91;;;8.10;66.91
72465;BME280;60471;52.150;4.508;2023-02-01T02:51:34;101646.69;;;8.02;67.24
72465;BME280;60471;52.150;4.508;2023-02-01T02:54:36;101668.66;;;7.99;67.53
72465;BME280;60471;52.150;4.508;2023-02-01T02:57:17;101671.19;;;8.02;67.45
72465;BME280;60471;52.150;4.508;2023-02-01T03:00:11;101672.69;;;8.14;67.11
72465;BME280;60471;52.150;4.508;2023-02-01T03:03:00;101625.84;;;7.96;67.49
72465;BME280;60471;52.150;4.508;2023-02-01T03:05:47;101659.47;;;7.80;68.33
72465;BME280;60471;52.150;4.508;2023-02-01T03:08:20;101661.06;;;7.87;68.14
72465;BME280;60471;52.150;4.508;2023-02-01T03:11:09;101685.81;;;7.77;68.24
72465;BME280;60471;52.150;4.508;2023-02-01T03:13:58;101646.16;;;7.88;68.11
72465;BME280;60471;52.150;4.508;2023-02-01T03:16:43;101670.31;;;7.66;68.56
72465;BME280;60471;52.150;4.508;2023-02-01T03:19:31;101678.72;;;7.80;67.97
72465;BME280;60471;52.150;4.508;2023-02-01T03:22:13;101664.28;;;7.63;68.47
72465;BME280;60471;52.150;4.508;2023-02-01T03:24:54;101671.66;;;7.84;67.67
72465;BME280;60471;52.150;4.508;2023-02-01T03:27:31;101645.38;;;7.84;67.84
72465;BME280;60471;52.150;4.508;2023-02-01T03:30:09;101705.19;;;7.73;68.05
72465;BME280;60471;52.150;4.508;2023-02-01T03:32:45;101643.47;;;7.91;66.97
72465;BME280;60471;52.150;4.508;2023-02-01T03:35:33;101666.41;;;7.84;67.26
72465;BME280;60471;52.150;4.508;2023-02-01T03:38:24;101642.81;;;7.82;67.49
72465;BME280;60471;52.150;4.508;2023-02-01T03:41:09;101641.94;;;7.82;67.79
72465;BME280;60471;52.150;4.508;2023-02-01T03:43:58;101655.19;;;7.76;67.91
72465;BME280;60471;52.150;4.508;2023-02-01T03:46:44;101663.03;;;7.77;68.09
72465;BME280;60471;52.150;4.508;2023-02-01T03:49:22;101679.00;;;7.68;67.71
72465;BME280;60471;52.150;4.508;2023-02-01T03:51:54;101663.81;;;7.82;67.16
72465;BME280;60471;52.150;4.508;2023-02-01T03:54:24;101669.91;;;7.84;66.92
72465;BME280;60471;52.150;4.508;2023-02-01T03:56:54;101666.50;;;7.79;67.49
72465;BME280;60471;52.150;4.508;2023-02-01T03:59:23;101662.09;;;7.81;67.46
72465;BME280;60471;52.150;4.508;2023-02-01T04:01:49;101667.34;;;7.80;67.17
72465;BME280;60471;52.150;4.508;2023-02-01T04:04:16;101647.56;;;8.02;66.43
72465;BME280;60471;52.150;4.508;2023-02-01T04:06:47;101666.41;;;7.84;66.91
72465;BME280;60471;52.150;4.508;2023-02-01T04:09:14;101711.91;;;7.86;66.75
72465;BME280;60471;52.150;4.508;2023-02-01T04:11:40;101661.00;;;7.90;66.78
72465;BME280;60471;52.150;4.508;2023-02-01T04:14:06;101661.06;;;7.87;66.97
72465;BME280;60471;52.150;4.508;2023-02-01T04:16:33;101664.38;;;7.95;66.71
72465;BME280;60471;52.150;4.508;2023-02-01T04:19:00;101656.94;;;7.77;67.56
72465;BME280;60471;52.150;4.508;2023-02-01T04:21:27;101665.22;;;7.60;67.91
72465;BME280;60471;52.150;4.508;2023-02-01T04:23:54;101650.06;;;7.71;67.45
72465;BME280;60471;52.150;4.508;2023-02-01T04:26:20;101635.47;;;7.58;67.51
72465;BME280;60471;52.150;4.508;2023-02-01T04:28:47;101654.47;;;7.71;67.40
72465;BME280;60471;52.150;4.508;2023-02-01T04:31:15;101668.63;;;7.64;67.65
72465;BME280;60471;52.150;4.508;2023-02-01T04:33:42;101649.44;;;7.59;67.95
72465;BME280;60471;52.150;4.508;2023-02-01T04:36:09;101675.94;;;7.48;68.16
72465;BME280;60471;52.150;4.508;2023-02-01T04:38:35;101673.31;;;7.49;68.32
72465;BME280;60471;52.150;4.508;2023-02-01T04:41:02;101664.34;;;7.58;67.85
72465;BME280;60471;52.150;4.508;2023-02-01T04:43:28;101648.56;;;7.60;67.64
72465;BME280;60471;52.150;4.508;2023-02-01T04:45:54;101658.31;;;7.54;68.30
72465;BME280;60471;52.150;4.508;2023-02-01T04:48:20;101645.19;;;7.54;68.31
72465;BME280;60471;52.150;4.508;2023-02-01T04:50:48;101657.44;;;7.54;68.50
72465;BME280;60471;52.150;4.508;2023-02-01T04:53:15;101650.47;;;7.53;68.47
72465;BME280;60471;52.150;4.508;2023-02-01T04:55:42;101642.03;;;7.39;68.95
72465;BME280;60471;52.150;4.508;2023-02-01T04:58:10;101637.53;;;7.44;68.81
72465;BME280;60471;52.150;4.508;2023-02-01T05:00:37;101634.91;;;7.44;68.85
72465;BME280;60471;52.150;4.508;2023-02-01T05:03:03;101650.56;;;7.50;69.06
72465;BME280;60471;52.150;4.508;2023-02-01T05:05:29;101635.84;;;7.41;69.47
72465;BME280;60471;52.150;4.508;2023-02-01T05:07:56;101635.91;;;7.40;69.60
72465;BME280;60471;52.150;4.508;2023-02-01T05:10:24;101646.44;;;7.37;69.68
72465;BME280;60471;52.150;4.508;2023-02-01T05:12:50;101679.63;;;7.41;69.82
72465;BME280;60471;52.150;4.508;2023-02-01T05:15:35;101655.72;;;7.53;69.62
72465;BME280;60471;52.150;4.508;2023-02-01T05:18:02;101662.38;;;7.29;70.50
72465;BME280;60471;52.150;4.508;2023-02-01T05:20:28;101681.25;;;7.46;69.90
72465;BME280;60471;52.150;4.508;2023-02-01T05:22:54;101661.13;;;7.45;70.07
72465;BME280;60471;52.150;4.508;2023-02-01T05:25:21;101694.38;;;7.46;70.18
72465;BME280;60471;52.150;4.508;2023-02-01T05:27:47;101694.66;;;7.74;69.45
72465;BME280;60471;52.150;4.508;2023-02-01T05:30:14;101680.06;;;7.60;69.82
72465;BME280;60471;52.150;4.508;2023-02-01T05:32:40;101686.75;;;7.74;69.24
72465;BME280;60471;52.150;4.508;2023-02-01T05:35:07;101672.03;;;7.67;69.39
72465;BME280;60471;52.150;4.508;2023-02-01T05:37:34;101682.72;;;7.58;69.35
72465;BME280;60471;52.150;4.508;2023-02-01T05:40:00;101663.22;;;7.70;69.15
72465;BME280;60471;52.150;4.508;2023-02-01T05:42:26;101687.03;;;7.62;69.52
72465;BME280;60471;52.150;4.508;2023-02-01T05:44:52;101675.84;;;7.54;69.94
72465;BME280;60471;52.150;4.508;2023-02-01T05:47:18;101659.97;;;7.59;69.88
72465;BME280;60471;52.150;4.508;2023-02-01T05:49:46;101662.69;;;7.54;69.99
72465;BME280;60471;52.150;4.508;2023-02-01T05:52:12;101688.25;;;7.46;70.53
72465;BME280;60471;52.150;4.508;2023-02-01T05:54:38;101679.00;;;7.68;69.77
72465;BME280;60471;52.150;4.508;2023-02-01T05:57:05;101667.56;;;7.72;69.79
72465;BME280;60471;52.150;4.508;2023-02-01T05:59:31;101689.59;;;7.65;69.78
72465;BME280;60471;52.150;4.508;2023-02-01T06:01:57;101689.59;;;7.65;69.77
72465;BME280;60471;52.150;4.508;2023-02-01T06:04:23;101690.84;;;7.47;70.25
72465;BME280;60471;52.150;4.508;2023-02-01T06:06:49;101656.72;;;7.47;70.32
72465;BME280;60471;52.150;4.508;2023-02-01T06:09:16;101659.97;;;7.59;70.24
72465;BME280;60471;52.150;4.508;2023-02-01T06:11:42;101676.81;;;7.48;70.36
72465;BME280;60471;52.150;4.508;2023-02-01T06:14:08;101686.22;;;7.60;69.94
72465;BME280;60471;52.150;4.508;2023-02-01T06:16:34;101675.59;;;7.65;69.99
72465;BME280;60471;52.150;4.508;2023-02-01T06:19:01;101677.91;;;7.78;69.55
72465;BME280;60471;52.150;4.508;2023-02-01T06:21:27;101679.84;;;7.70;69.40
72465;BME280;60471;52.150;4.508;2023-02-01T06:23:54;101695.59;;;7.70;69.37
72465;BME280;60471;52.150;4.508;2023-02-01T06:26:20;101687.94;;;7.61;69.77
72465;BME280;60471;52.150;4.508;2023-02-01T06:28:46;101666.91;;;7.63;68.99
72465;BME280;60471;52.150;4.508;2023-02-01T06:31:13;101670.84;;;7.82;68.36
72465;BME280;60471;52.150;4.508;2023-02-01T06:33:39;101693.66;;;7.78;68.37
72465;BME280;60471;52.150;4.508;2023-02-01T06:36:07;101683.00;;;7.86;67.97
72465;BME280;60471;52.150;4.508;2023-02-01T06:38:35;101684.84;;;7.81;68.22
72465;BME280;60471;52.150;4.508;2023-02-01T06:41:02;101697.13;;;7.80;68.19
72465;BME280;60471;52.150;4.508;2023-02-01T06:43:29;101670.63;;;7.90;68.07
72465;BME280;60471;52.150;4.508;2023-02-01T06:46:05;101672.66;;;7.78;68.36
72465;BME280;60471;52.150;4.508;2023-02-01T06:48:33;101715.34;;;7.88;68.59
72465;BME280;60471;52.150;4.508;2023-02-01T06:51:00;101715.16;;;7.57;69.74
72465;BME280;60471;52.150;4.508;2023-02-01T06:53:26;101679.19;;;7.61;69.86
72465;BME280;60471;52.150;4.508;2023-02-01T06:56:02;101672.78;;;7.74;69.86
72465;BME280;60471;52.150;4.508;2023-02-01T06:58:31;101666.84;;;7.64;70.28
72465;BME280;60471;52.150;4.508;2023-02-01T07:01:04;101675.53;;;7.68;69.78
72465;BME280;60471;52.150;4.508;2023-02-01T07:03:32;101683.44;;;7.66;69.88
72465;BME280;60471;52.150;4.508;2023-02-01T07:05:58;101686.03;;;7.68;69.95
72465;BME280;60471;52.150;4.508;2023-02-01T07:08:27;101661.88;;;7.52;70.30
72465;BME280;60471;52.150;4.508;2023-02-01T07:10:54;101724.47;;;7.72;69.85
72465;BME280;60471;52.150;4.508;2023-02-01T07:13:20;101671.03;;;7.73;69.68
72465;BME280;60471;52.150;4.508;2023-02-01T07:15:46;101686.69;;;7.77;69.40
72465;BME280;60471;52.150;4.508;2023-02-01T07:18:14;101694.94;;;7.62;70.14
72465;BME280;60471;52.150;4.508;2023-02-01T07:20:41;101687.72;;;7.72;69.56
72465;BME280;60471;52.150;4.508;2023-02-01T07:23:09;101691.41;;;7.63;69.90
72465;BME280;60471;52.150;4.508;2023-02-01T07:25:36;101685.81;;;7.77;69.50
72465;BME280;60471;52.150;4.508;2023-02-01T07:28:02;101698.97;;;7.77;69.47
72465;BME280;60471;52.150;4.508;2023-02-01T07:30:28;101712.41;;;7.63;69.93
72465;BME280;60471;52.150;4.508;2023-02-01T07:32:54;101704.59;;;7.59;70.09
72465;BME280;60471;52.150;4.508;2023-02-01T07:35:21;101689.81;;;7.54;70.02
72465;BME280;60471;52.150;4.508;2023-02-01T07:37:47;101699.34;;;7.59;70.14
72465;BME280;60471;52.150;4.508;2023-02-01T07:40:13;101697.81;;;7.50;70.53
72465;BME280;60471;52.150;4.508;2023-02-01T07:42:39;101691.47;;;7.59;70.45
72465;BME280;60471;52.150;4.508;2023-02-01T07:45:06;101714.28;;;7.56;70.29
72465;BME280;60471;52.150;4.508;2023-02-01T07:47:32;101707.47;;;7.48;71.01
72465;BME280;60471;52.150;4.508;2023-02-01T07:49:58;101734.38;;;7.59;70.49
72465;BME280;60471;52.150;4.508;2023-02-01T07:52:27;101743.34;;;7.49;70.73
72465;BME280;60471;52.150;4.508;2023-02-01T07:54:54;101707.25;;;7.59;70.18
72465;BME280;60471;52.150;4.508;2023-02-01T07:57:20;101726.28;;;7.68;69.60
72465;BME280;60471;52.150;4.508;2023-02-01T07:59:46;101732.38;;;7.70;69.45
72465;BME280;60471;52.150;4.508;2023-02-01T08:02:31;101728.75;;;7.76;69.59
72465;BME280;60471;52.150;4.508;2023-02-01T08:04:57;101721.75;;;7.76;69.44
72465;BME280;60471;52.150;4.508;2023-02-01T08:07:24;101741.00;;;7.77;70.00
72465;BME280;60471;52.150;4.508;2023-02-01T08:09:50;101715.53;;;7.79;70.37
72465;BME280;60471;52.150;4.508;2023-02-01T08:12:16;101697.34;;;7.70;70.02
72465;BME280;60471;52.150;4.508;2023-02-01T08:14:42;101696.53;;;7.68;70.20
72465;BME280;60471;52.150;4.508;2023-02-01T08:17:09;101698.13;;;7.75;69.92
72465;BME280;60471;52.150;4.508;2023-02-01T08:19:35;101733.69;;;7.90;69.29
72465;BME280;60471;52.150;4.508;2023-02-01T08:22:01;101703.22;;;7.82;69.06
72465;BME280;60471;52.150;4.508;2023-02-01T08:24:33;101695.34;;;7.82;68.89
72465;BME280;60471;52.150;4.508;2023-02-01T08:27:01;101671.25;;;8.01;68.18
72465;BME280;60471;52.150;4.508;2023-02-01T08:29:28;101669.78;;;8.25;67.76
72465;BME280;60471;52.150;4.508;2023-02-01T08:31:54;101704.00;;;7.86;68.84
72465;BME280;60471;52.150;4.508;2023-02-01T08:34:21;101719.00;;;7.82;69.27
72465;BME280;60471;52.150;4.508;2023-02-01T08:36:47;101697.69;;;7.95;69.17
72465;BME280;60471;52.150;4.508;2023-02-01T08:39:13;101695.06;;;7.95;69.07
72465;BME280;60471;52.150;4.508;2023-02-01T08:41:39;101686.75;;;7.74;69.93
72465;BME280;60471;52.150;4.508;2023-02-01T08:44:07;101729.31;;;7.90;69.61
72465;BME280;60471;52.150;4.508;2023-02-01T08:46:34;101716.03;;;7.96;69.59
72465;BME280;60471;52.150;4.508;2023-02-01T08:49:00;101698.59;;;7.92;69.97
72465;BME280;60471;52.150;4.508;2023-02-01T08:51:26;101686.59;;;7.82;70.01
72465;BME280;60471;52.150;4.508;2023-02-01T08:53:52;101671.94;;;8.09;69.30
72465;BME280;60471;52.150;4.508;2023-02-01T08:56:19;101706.78;;;8.17;69.02
72465;BME280;60471;52.150;4.508;2023-02-01T08:58:45;101675.75;;;8.31;68.22
72465;BME280;60471;52.150;4.508;2023-02-01T09:01:14;101753.69;;;8.34;67.91
72465;BME280;60471;52.150;4.508;2023-02-01T09:03:42;101657.78;;;8.50;66.65
72465;BME280;60471;52.150;4.508;2023-02-01T09:06:11;101676.97;;;8.54;66.77
72465;BME280;60471;52.150;4.508;2023-02-01T09:08:40;101674.19;;;8.60;66.88
72465;BME280;60471;52.150;4.508;2023-02-01T09:11:13;101672.16;;;8.37;67.78
72465;BME280;60471;52.150;4.508;2023-02-01T09:13:41;101675.72;;;8.33;67.94
72465;BME280;60471;52.150;4.508;2023-02-01T09:16:07;101664.50;;;8.26;68.16
72465;BME280;60471;52.150;4.508;2023-02-01T09:18:34;101630.19;;;8.65;66.86
72465;BME280;60471;52.150;4.508;2023-02-01T09:21:05;101674.38;;;8.52;67.01
72465;BME280;60471;52.150;4.508;2023-02-01T09:23:33;101669.69;;;8.29;67.92
72465;BME280;60471;52.150;4.508;2023-02-01T09:26:01;101679.19;;;8.36;67.85
72465;BME280;60471;52.150;4.508;2023-02-01T09:28:29;101673.13;;;8.31;67.91
72465;BME280;60471;52.150;4.508;2023-02-01T09:30:57;101711.16;;;8.18;68.31
72465;BME280;60471;52.150;4.508;2023-02-01T09:33:25;101666.81;;;8.04;69.07
72465;BME280;60471;52.150;4.508;2023-02-01T09:36:00;101675.16;;;8.20;68.16
72465;BME280;60471;52.150;4.508;2023-02-01T09:38:28;101711.53;;;8.01;68.64
72465;BME280;60471;52.150;4.508;2023-02-01T09:40:56;101693.06;;;8.41;67.56
72465;BME280;60471;52.150;4.508;2023-02-01T09:48:41;101718.50;;;8.04;68.70
72465;BME280;60471;52.150;4.508;2023-02-01T09:51:21;101685.59;;;8.23;68.27
72465;BME280;60471;52.150;4.508;2023-02-01T09:54:00;101670.50;;;8.31;68.06
72465;BME280;60471;52.150;4.508;2023-02-01T10:00:22;101692.63;;;7.85;69.24
72465;BME280;60471;52.150;4.508;2023-02-01T10:02:54;101678.97;;;8.08;68.38
72465;BME280;60471;52.150;4.508;2023-02-01T10:05:39;101673.81;;;8.04;68.70
72465;BME280;60471;52.150;4.508;2023-02-01T10:10:58;101684.16;;;8.10;68.75
72465;BME280;60471;52.150;4.508;2023-02-01T10:13:54;101691.97;;;8.13;68.11
72465;BME280;60471;52.150;4.508;2023-02-01T10:16:33;101691.47;;;8.36;67.32
72465;BME280;60471;52.150;4.508;2023-02-01T10:19:21;101671.50;;;8.27;67.47
72465;BME280;60471;52.150;4.508;2023-02-01T10:22:06;101727.13;;;8.09;67.85
72465;BME280;60471;52.150;4.508;2023-02-01T10:27:21;101752.75;;;8.39;67.26
72465;BME280;60471;52.150;4.508;2023-02-01T10:29:55;101685.22;;;8.40;67.81
72465;BME280;60471;52.150;4.508;2023-02-01T10:32:32;101702.00;;;8.34;68.27
72465;BME280;60471;52.150;4.508;2023-02-01T10:35:31;101706.69;;;8.57;67.94
72465;BME280;60471;52.150;4.508;2023-02-01T10:38:00;101707.28;;;8.33;69.10
72465;BME280;60471;52.150;4.508;2023-02-01T10:40:28;101705.09;;;8.14;69.29
72465;BME280;60471;52.150;4.508;2023-02-01T10:43:00;101734.44;;;8.33;68.68
72465;BME280;60471;52.150;4.508;2023-02-01T10:45:29;101674.56;;;8.09;69.55
72465;BME280;60471;52.150;4.508;2023-02-01T10:47:59;101692.91;;;8.10;69.51
72465;BME280;60471;52.150;4.508;2023-02-01T10:50:38;101690.84;;;8.23;69.04
72465;BME280;60471;52.150;4.508;2023-02-01T10:56:10;101683.78;;;8.27;69.07
72465;BME280;60471;52.150;4.508;2023-02-01T10:58:46;101684.47;;;8.33;68.74
72465;BME280;60471;52.150;4.508;2023-02-01T11:01:23;101659.50;;;8.16;69.42
72465;BME280;60471;52.150;4.508;2023-02-01T11:03:58;101694.34;;;8.61;67.84
72465;BME280;60471;52.150;4.508;2023-02-01T11:06:33;101683.47;;;8.40;68.16
72465;BME280;60471;52.150;4.508;2023-02-01T11:17:51;101677.97;;;8.50;67.12
72465;BME280;60471;52.150;4.508;2023-02-01T11:19:58;101647.66;;;8.67;66.83
72465;BME280;60471;52.150;4.508;2023-02-01T11:22:27;101673.91;;;8.70;67.03
72465;BME280;60471;52.150;4.508;2023-02-01T11:24:55;101668.41;;;8.78;66.45
72465;BME280;60471;52.150;4.508;2023-02-01T11:27:24;101698.56;;;8.66;66.84
72465;BME280;60471;52.150;4.508;2023-02-01T11:29:55;101699.38;;;8.34;67.64
72465;BME280;60471;52.150;4.508;2023-02-01T11:32:26;101674.06;;;8.64;66.67
72465;BME280;60471;52.150;4.508;2023-02-01T11:35:02;101648.63;;;8.96;65.97
72465;BME280;60471;52.150;4.508;2023-02-01T11:37:35;101634.34;;;9.05;65.53
72465;BME280;60471;52.150;4.508;2023-02-01T11:42:57;101648.06;;;9.16;65.70
72465;BME280;60471;52.150;4.508;2023-02-01T11:45:29;101665.69;;;8.83;66.20
72465;BME280;60471;52.150;4.508;2023-02-01T11:48:00;101658.47;;;8.89;66.58
72465;BME280;60471;52.150;4.508;2023-02-01T11:50:42;101696.38;;;8.50;68.00
72465;BME280;60471;52.150;4.508;2023-02-01T11:53:42;101704.59;;;8.37;68.21
72465;BME280;60471;52.150;4.508;2023-02-01T12:05:08;101680.38;;;8.59;67.77
72465;BME280;60471;52.150;4.508;2023-02-01T12:19:33;101634.78;;;8.57;68.36
72465;BME280;60471;52.150;4.508;2023-02-01T12:30:35;101624.84;;;9.58;64.62
72465;BME280;60471;52.150;4.508;2023-02-01T12:33:40;101613.72;;;9.76;63.92
72465;BME280;60471;52.150;4.508;2023-02-01T12:39:32;101660.00;;;11.83;56.66
72465;BME280;60471;52.150;4.508;2023-02-01T12:42:14;101622.28;;;12.42;55.43
72465;BME280;60471;52.150;4.508;2023-02-01T12:44:50;101610.47;;;11.65;57.16
72465;BME280;60471;52.150;4.508;2023-02-01T12:50:22;101618.88;;;11.07;59.53
72465;BME280;60471;52.150;4.508;2023-02-01T12:52:56;101658.75;;;10.25;61.39
72465;BME280;60471;52.150;4.508;2023-02-01T12:55:42;101634.03;;;10.27;61.65
72465;BME280;60471;52.150;4.508;2023-02-01T12:58:35;101624.03;;;10.37;62.03
72465;BME280;60471;52.150;4.508;2023-02-01T13:01:23;101620.56;;;10.08;62.26
72465;BME280;60471;52.150;4.508;2023-02-01T13:07:12;101627.72;;;9.21;66.06
72465;BME280;60471;52.150;4.508;2023-02-01T13:12:24;101610.91;;;9.26;66.39
72465;BME280;60471;52.150;4.508;2023-02-01T13:14:59;101643.25;;;9.59;65.51
72465;BME280;60471;52.150;4.508;2023-02-01T13:17:32;101622.59;;;9.74;65.25
72465;BME280;60471;52.150;4.508;2023-02-01T13:20:04;101637.34;;;9.51;65.73
72465;BME280;60471;52.150;4.508;2023-02-01T13:22:45;101613.09;;;9.12;67.37
72465;BME280;60471;52.150;4.508;2023-02-01T13:25:45;101622.59;;;9.16;67.11
72465;BME280;60471;52.150;4.508;2023-02-01T13:37:23;101621.72;;;8.86;68.23
72465;BME280;60471;52.150;4.508;2023-02-01T13:40:25;101627.22;;;8.77;69.15
72465;BME280;60471;52.150;4.508;2023-02-01T13:43:07;101627.13;;;8.82;69.45
72465;BME280;60471;52.150;4.508;2023-02-01T13:45:51;101650.56;;;8.91;69.40
72465;BME280;60471;52.150;4.508;2023-02-01T13:48:28;101661.22;;;8.85;70.12
72465;BME280;60471;52.150;4.508;2023-02-01T13:51:07;101613.34;;;8.72;70.53
72465;BME280;60471;52.150;4.508;2023-02-01T13:53:35;101628.53;;;8.93;69.93
72465;BME280;60471;52.150;4.508;2023-02-01T13:56:20;101624.53;;;9.10;69.28
72465;BME280;60471;52.150;4.508;2023-02-01T13:58:50;101629.69;;;9.14;69.02
72465;BME280;60471;52.150;4.508;2023-02-01T14:03:56;101643.63;;;9.18;69.09
72465;BME280;60471;52.150;4.508;2023-02-01T14:11:53;101622.47;;;9.21;69.25
72465;BME280;60471;52.150;4.508;2023-02-01T14:19:26;101641.19;;;9.12;69.68
72465;BME280;60471;52.150;4.508;2023-02-01T14:24:26;101627.78;;;9.19;69.23
72465;BME280;60471;52.150;4.508;2023-02-01T14:26:57;101611.44;;;9.08;69.82
72465;BME280;60471;52.150;4.508;2023-02-01T14:29:39;101613.72;;;9.48;68.25
72465;BME280;60471;52.150;4.508;2023-02-01T14:32:19;101614.75;;;9.43;68.48
72465;BME280;60471;52.150;4.508;2023-02-01T14:34:49;101622.75;;;9.12;69.81
72465;BME280;60471;52.150;4.508;2023-02-01T14:47:54;101636.47;;;9.21;69.33
72465;BME280;60471;52.150;4.508;2023-02-01T15:01:27;101650.50;;;9.23;69.40
72465;BME280;60471;52.150;4.508;2023-02-01T15:04:14;101660.22;;;9.20;69.52
72465;BME280;60471;52.150;4.508;2023-02-01T15:06:56;101663.81;;;9.17;69.49
72465;BME280;60471;52.150;4.508;2023-02-01T15:12:14;101652.16;;;9.26;69.73
72465;BME280;60471;52.150;4.508;2023-02-01T15:14:46;101652.56;;;9.42;68.51
72465;BME280;60471;52.150;4.508;2023-02-01T15:19:58;101665.19;;;9.01;70.86
72465;BME280;60471;52.150;4.508;2023-02-01T15:22:30;101660.69;;;9.05;70.46
72465;BME280;60471;52.150;4.508;2023-02-01T15:25:00;101688.84;;;9.32;69.73
72465;BME280;60471;52.150;4.508;2023-02-01T15:27:28;101661.44;;;9.08;70.37
72465;BME280;60471;52.150;4.508;2023-02-01T15:30:06;101674.59;;;9.39;69.39
72465;BME280;60471;52.150;4.508;2023-02-01T15:32:36;101685.94;;;9.12;69.94
72465;BME280;60471;52.150;4.508;2023-02-01T15:35:05;101659.31;;;8.91;70.77
72465;BME280;60471;52.150;4.508;2023-02-01T15:37:51;101669.28;;;9.10;70.18
72465;BME280;60471;52.150;4.508;2023-02-01T15:40:20;101647.94;;;9.20;69.76